McIntosh, FL (32664)

3:13 AM EST on December 04, 2016 (GMT -0500)
Suburbs of Evinston, FL | | Change Station

Elev 72 ft 29.50 °N, 82.23 °W | Updated 7 seconds ago

Partly Cloudy
Partly Cloudy
51.1 °F
Feels Like 51.1 °F
N
0.0
Wind Variable Wind from SSW
Gusts 0.0 mph

Today
High -- | Low -- °F
--% Chance of Precip.
Yesterday
High -- | Low -- °F
Precip. -- in
Pressure 30.12 in
Visibility 10.0 miles
Clouds Few 3600 ft
Dew Point 51 °F
Humidity 99%
Rainfall 0.00 in
Snow Depth Not available.
7:08 AM 5:29 PM
Waxing Crescent, 21% visible
METAR KGNV 040753Z AUTO 00000KT 10SM FEW036 12/09 A3012 RMK AO2 SLP199 T01170094
Pressure 30.12 in
Visibility 10.0 miles
Clouds Few 3600 ft
Dew Point 51 °F
Humidity 99%
Rainfall 0.00 in
Snow Depth Not available.
7:08 AM 5:29 PM
Waxing Crescent, 21% visible
METAR KGNV 040753Z AUTO 00000KT 10SM FEW036 12/09 A3012 RMK AO2 SLP199 T01170094

10-Day Weather Forecast

Almanac

Astronomy

Dec. 04, 2016 Rise Set
Actual Time
Civil Twilight
Nautical Twilight
Astronomical Twilight
Moon
Length of Visible Light
Length of Day
Tomorrow will be .
, % of the Moon is Illuminated

Today's Extremes

State Highs State Lows

Community

WunderPhotos

Upload Photos

1,955,587 photos uploaded!

WunderBlog® & News

Nearby

Air Quality

  Air Quality AQ Index Pollutant
Not available.

Snow Depth

Station Depth Elevation

Earthquake Activity

City Distance Mag. Time & Date
Minimum magnitude displayed is 2.5.

Coastal Water Temperatures

Place Temperature

Stations

Nearby Weather Stations

Station Location Temp. Windchill Dew Point Humidity Wind Precip. Elev Updated Type
                   

Watches & Warnings

There are currently no watches in effect.